Time;durP1;ratioP1;P1;durP2;ratioP2;P2;SDS_P1;SDS_P2;PMS_P1;PMS_P2;Temp;Humidity;BMP_temperature;BMP_pressure;BME280_temperature;BME280_humidity;BME280_pressure;Samples;Min_cycle;Max_cycle;Signal;HPM_P1;HPM_P2
2021/04/19 00:01:47;;;;;;;14.50;8.43;;;;;;;3.53;69.47;100088.81;1697123;83;21055;-67
2021/04/19 00:04:14;;;;;;;14.83;8.00;;;;;;;3.48;69.28;100086.72;1691416;83;21578;-67
2021/04/19 00:06:42;;;;;;;20.35;8.55;;;;;;;3.45;69.34;100084.17;1695146;83;21237;-67
2021/04/19 00:09:10;;;;;;;14.87;8.18;;;;;;;3.44;69.49;100081.16;1674305;83;21165;-67
2021/04/19 00:11:37;;;;;;;17.90;7.97;;;;;;;3.43;69.64;100078.17;1690688;83;21031;-67
2021/04/19 00:14:04;;;;;;;17.40;9.18;;;;;;;3.40;69.41;100073.89;1704153;82;21048;-67
2021/04/19 00:16:31;;;;;;;17.57;8.25;;;;;;;3.38;69.41;100079.95;1705306;82;20935;-67
2021/04/19 00:18:58;;;;;;;17.07;9.30;;;;;;;3.32;69.56;100071.40;1704934;82;21193;-67
2021/04/19 00:21:25;;;;;;;19.15;8.93;;;;;;;3.30;69.55;100064.55;1705954;82;21030;-67
2021/04/19 00:23:52;;;;;;;15.65;9.20;;;;;;;3.29;69.61;100063.70;1691916;83;21008;-67
2021/04/19 00:26:19;;;;;;;13.18;8.18;;;;;;;3.28;69.63;100067.16;1702784;82;21576;-67
2021/04/19 00:28:46;;;;;;;19.48;8.90;;;;;;;3.24;69.68;100068.05;1692317;83;21144;-67
2021/04/19 00:31:14;;;;;;;18.32;8.98;;;;;;;3.20;69.76;100063.81;1705466;82;21547;-66
2021/04/19 00:33:41;;;;;;;16.97;8.63;;;;;;;3.17;69.79;100070.75;1696512;83;20995;-67
2021/04/19 00:36:09;;;;;;;14.63;9.25;;;;;;;3.13;69.91;100072.05;1694260;83;20965;-67
2021/04/19 00:38:37;;;;;;;19.07;9.05;;;;;;;3.11;69.94;100063.93;1690686;83;20949;-66
2021/04/19 00:41:04;;;;;;;;;;;;;;;3.09;69.96;100069.53;1696990;83;21986;-67
2021/04/19 00:43:31;;;;;;;16.10;9.98;;;;;;;3.05;70.23;100070.42;1702507;83;21412;-67
2021/04/19 00:46:03;;;;;;;16.60;8.80;;;;;;;3.01;70.07;100070.91;1690992;83;21138;-67
2021/04/19 00:48:32;;;;;;;22.35;8.80;;;;;;;2.99;70.64;100074.36;1641933;85;21153;-66
2021/04/19 00:50:59;;;;;;;14.95;9.70;;;;;;;2.96;70.25;100071.82;1692134;83;20973;-67
2021/04/19 00:53:28;;;;;;;19.45;9.28;;;;;;;2.95;70.29;100071.41;1705118;83;21291;-67
2021/04/19 00:55:55;;;;;;;17.40;9.30;;;;;;;2.94;70.39;100070.97;1705210;83;21219;-67
2021/04/19 00:58:30;;;;;;;18.85;9.18;;;;;;;2.95;70.45;100070.13;1700421;83;21175;-67
2021/04/19 01:00:57;;;;;;;20.90;9.15;;;;;;;2.90;70.55;100071.01;1702485;83;20952;-66
2021/04/19 01:03:24;;;;;;;14.13;8.28;;;;;;;2.85;70.63;100070.20;1671213;84;21189;-66
2021/04/19 01:05:53;;;;;;;18.02;7.20;;;;;;;2.84;70.75;100067.21;1700120;83;21007;-66
2021/04/19 01:08:21;;;;;;;14.40;8.20;;;;;;;2.81;70.76;100072.41;1705593;83;21224;-66
2021/04/19 01:10:48;;;;;;;14.70;7.78;;;;;;;2.81;71.02;100075.42;1702636;83;20973;-66
2021/04/19 01:13:15;;;;;;;16.87;7.95;;;;;;;2.78;71.00;100076.30;1705323;83;21023;-66
2021/04/19 01:15:42;;;;;;;15.88;8.03;;;;;;;2.74;70.94;100070.73;1700633;83;21705;-67
2021/04/19 01:18:09;;;;;;;14.05;7.80;;;;;;;2.71;71.24;100069.48;1699021;83;21007;-66
2021/04/19 01:20:46;;;;;;;14.55;7.92;;;;;;;2.70;71.19;100071.66;1700904;83;21195;-66
2021/04/19 01:23:14;;;;;;;;;;;;;;;2.68;71.28;100070.80;1702770;83;21056;-67
2021/04/19 01:25:42;;;;;;;13.30;7.72;;;;;;;2.65;71.42;100075.55;1688427;84;20569;-67
2021/04/19 01:28:10;;;;;;;16.02;8.63;;;;;;;2.65;71.34;100072.13;1691264;84;21055;-67
2021/04/19 01:30:42;;;;;;;12.98;7.47;;;;;;;2.62;71.46;100077.31;1694424;84;21012;-66
2021/04/19 01:33:09;;;;;;;15.40;7.55;;;;;;;2.63;71.40;100081.59;1666395;84;21233;-66
2021/04/19 01:35:37;;;;;;;13.85;8.18;;;;;;;2.60;71.70;100073.89;1692197;83;21526;-67
2021/04/19 01:38:08;;;;;;;14.75;8.18;;;;;;;2.58;71.55;100075.65;1670763;84;21035;-67
2021/04/19 01:40:35;;;;;;;16.77;8.13;;;;;;;2.57;71.59;100080.36;1683738;84;21025;-66
2021/04/19 01:43:04;;;;;;;14.00;7.75;;;;;;;2.54;71.51;100081.68;1668217;84;21155;-66
2021/04/19 01:45:31;;;;;;;17.82;8.13;;;;;;;2.54;71.77;100084.26;1700291;83;21207;-66
2021/04/19 01:47:59;;;;;;;15.58;7.15;;;;;;;2.54;71.79;100079.95;1668919;84;21012;-66
2021/04/19 01:50:27;;;;;;;;;;;;;;;2.54;71.81;100076.09;1703155;83;21654;-67
2021/04/19 01:52:58;;;;;;;13.80;7.42;;;;;;;2.55;71.99;100078.22;1686538;83;20535;-67
2021/04/19 01:55:28;;;;;;;13.80;8.30;;;;;;;2.55;71.98;100070.49;1687850;83;20971;-66
2021/04/19 01:58:09;;;;;;;14.55;8.10;;;;;;;2.53;71.85;100067.09;1691255;83;21407;-66
2021/04/19 02:00:40;;;;;;;15.40;8.70;;;;;;;2.50;71.79;100069.70;1686662;82;21061;-66
2021/04/19 02:03:31;;;;;;;17.35;9.58;;;;;;;2.42;71.75;100065.45;1683013;82;21610;-66
2021/04/19 02:06:16;;;;;;;18.60;9.45;;;;;;;2.36;71.77;100065.52;1704507;82;21565;-67
2021/04/19 02:09:06;;;;;;;14.55;8.93;;;;;;;2.39;71.89;100065.48;1700203;83;21150;-66
2021/04/19 02:12:05;;;;;;;15.35;8.70;;;;;;;2.41;71.96;100063.76;1694494;83;21431;-66
2021/04/19 02:14:52;;;;;;;16.48;9.20;;;;;;;2.36;71.86;100064.22;1692145;83;21161;-67
2021/04/19 02:17:42;;;;;;;15.60;9.87;;;;;;;2.30;71.94;100059.12;1679345;84;21600;-66
2021/04/19 02:20:19;;;;;;;14.47;9.38;;;;;;;2.26;71.96;100058.72;1695351;83;21089;-67
2021/04/19 02:22:50;;;;;;;;;;;;;;;2.22;71.96;100060.91;1698763;83;21013;-66
2021/04/19 02:25:34;;;;;;;17.62;8.43;;;;;;;2.21;72.24;100047.58;1695046;83;21261;-67
2021/04/19 02:28:06;;;;;;;16.97;9.70;;;;;;;2.20;72.13;100053.61;1695574;83;21045;-67
2021/04/19 02:30:40;;;;;;;21.45;10.40;;;;;;;2.08;72.05;100057.14;1696538;83;21056;-66
2021/04/19 02:33:15;;;;;;;21.85;10.53;;;;;;;1.97;72.01;100059.80;1699079;83;21005;-66
2021/04/19 02:35:44;;;;;;;23.22;9.88;;;;;;;1.89;72.13;100050.41;1696937;83;21138;-66
2021/04/19 02:38:18;;;;;;;17.27;9.58;;;;;;;1.80;72.17;100051.33;1692858;83;21365;-66
2021/04/19 02:40:47;;;;;;;13.95;9.80;;;;;;;1.68;72.09;100052.27;1692875;83;21565;-66
2021/04/19 02:43:15;;;;;;;17.60;10.13;;;;;;;1.61;72.22;100060.02;1699696;83;21022;-66
2021/04/19 02:45:44;;;;;;;17.05;10.13;;;;;;;1.58;72.31;100052.32;1699181;83;21004;-66
2021/04/19 02:48:13;;;;;;;18.50;11.08;;;;;;;1.58;72.39;100049.75;1690635;83;21094;-66
2021/04/19 02:50:41;;;;;;;17.23;10.10;;;;;;;1.60;72.53;100054.03;1661142;85;22384;-66
2021/04/19 02:53:09;;;;;;;18.23;10.28;;;;;;;1.63;72.62;100045.44;1687977;83;21082;-66
2021/04/19 02:55:37;;;;;;;21.73;11.00;;;;;;;1.63;72.64;100045.44;1669134;85;21182;-67
2021/04/19 02:58:08;;;;;;;18.10;10.60;;;;;;;1.67;72.67;100047.11;1703026;82;21701;-66
2021/04/19 03:00:40;;;;;;;22.10;10.63;;;;;;;1.65;72.58;100046.26;1699746;82;20969;-66
2021/04/19 03:03:12;;;;;;;16.95;9.70;;;;;;;1.63;72.56;100044.14;1678112;84;21221;-66
2021/04/19 03:05:40;;;;;;;17.12;8.90;;;;;;;1.60;72.66;100048.00;1680146;84;21577;-66
2021/04/19 03:08:12;;;;;;;18.65;9.65;;;;;;;1.56;72.60;100037.72;1658610;85;21593;-66
2021/04/19 03:10:42;;;;;;;22.93;10.93;;;;;;;1.47;72.65;100042.92;1701766;82;21609;-66
2021/04/19 03:13:10;;;;;;;25.25;10.58;;;;;;;1.39;72.67;100034.39;1705933;82;21108;-66
2021/04/19 03:15:40;;;;;;;26.90;10.08;;;;;;;1.34;72.78;100033.55;1703073;82;22069;-66
2021/04/19 03:18:09;;;;;;;19.35;9.95;;;;;;;1.31;72.80;100043.86;1673267;84;21551;-67
2021/04/19 03:20:48;;;;;;;21.60;10.10;;;;;;;1.28;72.83;100038.73;1678495;84;21157;-66
2021/04/19 03:23:16;;;;;;;27.02;9.90;;;;;;;1.27;72.90;100034.45;1679477;84;20988;-66
2021/04/19 03:25:44;;;;;;;17.67;9.95;;;;;;;1.23;72.95;100033.63;1660418;85;21196;-66
2021/04/19 03:28:13;;;;;;;16.55;10.63;;;;;;;1.22;72.98;100035.75;1694293;83;21414;-66
2021/04/19 03:30:40;;;;;;;14.20;9.25;;;;;;;1.26;73.10;100030.16;1696856;83;21594;-66
2021/04/19 03:33:09;;;;;;;15.32;9.58;;;;;;;1.29;73.08;100034.03;1694422;83;21120;-67
2021/04/19 03:35:39;;;;;;;17.70;9.78;;;;;;;1.29;73.12;100032.74;1700908;83;21012;-68
2021/04/19 03:38:09;;;;;;;23.02;10.90;;;;;;;1.32;73.12;100030.16;1696536;83;21009;-67
2021/04/19 03:40:37;;;;;;;22.13;10.65;;;;;;;1.37;73.20;100029.67;1694836;83;22123;-66
2021/04/19 03:43:08;;;;;;;18.65;10.75;;;;;;;1.42;73.26;100026.65;1695735;83;21576;-66
2021/04/19 03:45:37;;;;;;;21.62;10.93;;;;;;;1.53;73.40;100030.02;1689908;83;21028;-66
2021/04/19 03:48:11;;;;;;;23.98;12.35;;;;;;;1.60;73.23;100032.55;1698699;83;20955;-66
2021/04/19 03:50:43;;;;;;;35.75;12.68;;;;;;;1.64;73.26;100029.11;1693671;83;21083;-66
2021/04/19 03:53:11;;;;;;;29.98;12.68;;;;;;;1.70;73.26;100027.78;1693637;83;21224;-66
2021/04/19 03:55:41;;;;;;;31.65;12.00;;;;;;;1.88;73.49;100022.52;1691154;84;20980;-66
2021/04/19 03:58:09;;;;;;;36.55;15.60;;;;;;;2.11;73.34;100025.36;1690764;84;20997;-66
2021/04/19 04:00:39;;;;;;;41.80;12.13;;;;;;;2.31;73.33;100024.75;1691405;84;21739;-67
2021/04/19 04:03:08;;;;;;;20.30;10.30;;;;;;;2.49;73.13;100031.89;1689101;84;21136;-66
2021/04/19 04:05:36;;;;;;;23.07;9.13;;;;;;;2.76;73.17;100027.75;1691103;84;21298;-67
2021/04/19 04:08:04;;;;;;;21.85;8.98;;;;;;;2.98;73.08;100032.69;1692662;84;21601;-69
2021/04/19 04:10:33;;;;;;;17.40;9.60;;;;;;;3.23;73.02;100030.23;1693579;84;20968;-68
2021/04/19 04:13:00;;;;;;;26.87;10.38;;;;;;;3.55;73.11;100023.78;1690933;84;20984;-68
2021/04/19 04:15:28;;;;;;;17.02;8.90;;;;;;;3.89;72.73;100024.14;1685981;84;21598;-66
2021/04/19 04:17:55;;;;;;;15.15;9.05;;;;;;;4.24;72.72;100021.01;1692189;84;21234;-66
2021/04/19 04:20:21;;;;;;;24.40;10.23;;;;;;;4.70;72.68;100020.22;1693795;84;21554;-67
2021/04/19 04:22:48;;;;;;;17.07;10.43;;;;;;;5.10;72.29;100025.91;1691658;84;20994;-67
2021/04/19 04:25:17;;;;;;;16.32;9.45;;;;;;;5.45;71.99;100023.02;1694387;84;21076;-67
2021/04/19 04:27:44;;;;;;;26.93;13.43;;;;;;;5.86;71.94;100018.66;1690106;84;21178;-67
2021/04/19 04:30:12;;;;;;;33.92;16.45;;;;;;;6.35;71.79;100014.90;1691874;84;22212;-67
2021/04/19 04:32:39;;;;;;;45.48;15.75;;;;;;;6.71;71.49;100017.44;1692972;84;21199;-67
2021/04/19 04:35:07;;;;;;;45.65;18.10;;;;;;;7.09;71.34;100015.55;1692105;84;21171;-67
2021/04/19 04:37:34;;;;;;;92.82;17.07;;;;;;;7.44;70.96;100012.37;1692484;84;21175;-67
2021/04/19 04:40:01;;;;;;;89.83;16.95;;;;;;;7.72;70.69;100008.48;1693265;84;21045;-67
2021/04/19 04:42:30;;;;;;;66.77;15.50;;;;;;;8.16;71.21;100013.58;1693033;84;21200;-67
2021/04/19 04:44:57;;;;;;;82.37;17.45;;;;;;;8.89;71.14;100008.09;1695860;84;21017;-67
2021/04/19 04:47:35;;;;;;;46.30;15.32;;;;;;;9.30;70.50;100007.02;1691320;84;21067;-67
2021/04/19 04:50:28;;;;;;;52.15;14.07;;;;;;;9.53;69.79;100010.08;1689917;84;21569;-67
2021/04/19 04:53:15;;;;;;;53.00;13.72;;;;;;;9.96;69.92;100006.61;1687525;83;21669;-67
2021/04/19 04:55:44;;;;;;;54.93;14.28;;;;;;;10.27;68.95;100005.40;1628043;87;21302;-68
2021/04/19 04:58:14;;;;;;;61.15;15.05;;;;;;;10.55;69.37;100004.25;1615860;87;21638;-67
2021/04/19 05:00:42;;;;;;;48.73;16.05;;;;;;;11.03;69.31;100003.02;1629923;87;21746;-67
2021/04/19 05:03:11;;;;;;;48.73;15.90;;;;;;;11.24;69.09;100002.06;1627101;87;21067;-67
2021/04/19 05:05:40;;;;;;;58.52;15.50;;;;;;;11.43;68.59;99997.69;1628441;87;21211;-68
2021/04/19 05:08:15;;;;;;;36.90;13.10;;;;;;;11.85;69.20;100003.16;1618295;87;21626;-67
2021/04/19 05:10:42;;;;;;;44.40;13.03;;;;;;;12.35;68.68;100002.91;1627477;87;21024;-68
2021/04/19 05:13:13;;;;;;;42.00;13.00;;;;;;;12.66;68.17;100002.20;1627167;87;21100;-68
2021/04/19 05:15:49;;;;;;;51.88;17.23;;;;;;;12.98;67.39;100003.13;1797637;78;22364;-67
2021/04/19 05:18:18;;;;;;;55.48;19.67;;;;;;;13.11;67.37;100005.12;1766059;80;21602;-68
2021/04/19 05:20:46;;;;;;;37.98;17.07;;;;;;;13.48;67.84;99998.75;1764746;80;21637;-68
2021/04/19 05:23:15;;;;;;;35.60;17.55;;;;;;;13.82;67.20;100002.13;1763660;80;21032;-68
2021/04/19 05:25:44;;;;;;;25.82;16.70;;;;;;;14.21;67.58;100000.80;1767621;80;20989;-67
2021/04/19 05:28:13;;;;;;;38.92;14.25;;;;;;;14.61;67.04;99997.16;1765416;79;20962;-67
2021/04/19 05:30:44;;;;;;;24.55;12.55;;;;;;;14.84;66.98;99997.94;1764429;79;21143;-69
2021/04/19 05:33:12;;;;;;;23.45;11.33;;;;;;;15.10;66.92;99998.16;1770242;80;22241;-70
2021/04/19 05:35:39;;;;;;;25.20;13.13;;;;;;;15.39;66.68;99997.17;1765769;80;21052;-68
2021/04/19 05:38:07;;;;;;;26.70;13.93;;;;;;;15.83;66.76;99990.89;1765785;80;22305;-69
2021/04/19 05:40:36;;;;;;;22.60;12.70;;;;;;;16.17;66.31;99993.95;1772857;80;21199;-68
2021/04/19 05:43:06;;;;;;;32.48;13.18;;;;;;;16.29;65.49;99993.13;1760587;79;21203;-69
2021/04/19 05:45:36;;;;;;;24.43;9.10;;;;;;;16.34;65.07;99996.78;1740308;80;21213;-69
2021/04/19 05:50:43;;;;;;;17.32;8.88;;;;;;;15.87;62.90;100000.27;1823539;77;22185;-68
2021/04/19 05:53:12;;;;;;;25.75;9.00;;;;;;;15.74;64.55;99999.40;1798230;78;21671;-69
2021/04/19 05:55:41;;;;;;;20.82;7.28;;;;;;;15.78;64.69;99990.83;1796937;78;22567;-69
2021/04/19 05:58:22;;;;;;;13.32;7.70;;;;;;;16.19;64.24;99994.70;1804652;78;21077;-70
2021/04/19 06:01:11;;;;;;;15.05;7.50;;;;;;;16.17;63.91;100004.49;1836833;76;22537;-69
2021/04/19 06:04:08;;;;;;;13.83;7.95;;;;;;;16.24;63.83;99999.17;1802692;77;20993;-70
2021/04/19 06:07:01;;;;;;;14.53;6.62;;;;;;;16.29;63.24;100001.03;1806786;77;21186;-69
2021/04/19 06:09:42;;;;;;;19.05;7.85;;;;;;;15.96;62.28;100001.45;1805660;79;21085;-68
2021/04/19 06:12:12;;;;;;;20.52;7.72;;;;;;;15.76;63.03;100001.44;1801018;79;21631;-69
2021/04/19 06:14:43;;;;;;;17.12;7.37;;;;;;;15.79;63.10;100004.34;1804171;79;21036;-69
2021/04/19 06:17:12;;;;;;;15.20;6.22;;;;;;;15.62;61.84;100008.03;1805664;77;21147;-70
2021/04/19 06:19:44;;;;;;;15.05;5.28;;;;;;;15.15;61.66;100006.58;1802640;79;22152;-69
2021/04/19 06:22:21;;;;;;;10.55;5.20;;;;;;;14.88;61.30;100009.97;1796973;79;21775;-70
2021/04/19 06:24:50;;;;;;;11.22;5.30;;;;;;;14.78;61.47;100018.86;1801531;79;21005;-69
2021/04/19 06:27:24;;;;;;;13.30;5.65;;;;;;;14.55;61.22;100013.67;1795593;79;21166;-70
2021/04/19 06:29:52;;;;;;;11.88;5.80;;;;;;;14.31;60.83;100012.44;1805012;77;21159;-69
2021/04/19 06:32:24;;;;;;;12.23;5.62;;;;;;;14.13;61.59;100012.20;1802536;77;22309;-71
2021/04/19 06:34:51;;;;;;;10.28;5.05;;;;;;;14.31;60.55;100012.44;1802921;77;21183;-70
2021/04/19 06:37:21;;;;;;;11.65;5.90;;;;;;;14.10;60.38;100010.13;1739654;80;21868;-70
2021/04/19 06:39:48;;;;;;;9.00;5.30;;;;;;;14.15;61.54;100012.50;1738095;80;21160;-69
2021/04/19 06:42:16;;;;;;;9.60;5.97;;;;;;;14.41;60.88;100024.11;1738927;80;21166;-70
2021/04/19 06:44:43;;;;;;;13.55;5.97;;;;;;;14.49;60.66;100012.69;1737656;81;22202;-70
2021/04/19 06:47:11;;;;;;;16.50;5.25;;;;;;;14.43;60.63;100010.91;1742885;81;21175;-69
2021/04/19 06:49:39;;;;;;;13.05;5.28;;;;;;;14.40;59.82;100009.30;1743608;81;21203;-69
2021/04/19 06:52:07;;;;;;;10.15;5.12;;;;;;;14.56;60.94;100010.56;1747031;81;21056;-70
2021/04/19 06:54:34;;;;;;;12.78;6.15;;;;;;;14.87;60.58;100008.30;1747882;79;21689;-69
2021/04/19 06:57:01;;;;;;;11.85;5.20;;;;;;;14.80;59.46;100012.69;1744954;81;21210;-69
2021/04/19 06:59:30;;;;;;;13.83;6.20;;;;;;;14.63;59.42;100004.50;1741278;80;21221;-70
2021/04/19 07:01:57;;;;;;;15.08;5.92;;;;;;;14.39;59.04;100007.59;1689714;84;21212;-71
2021/04/19 07:04:27;;;;;;;11.85;6.53;;;;;;;14.22;59.26;100010.35;1708298;83;21255;-70
2021/04/19 07:06:58;;;;;;;12.80;6.10;;;;;;;14.07;59.61;100010.30;1716410;82;21248;-69
2021/04/19 07:09:27;;;;;;;12.90;6.12;;;;;;;14.18;59.71;100006.23;1691863;83;21402;-71
2021/04/19 07:11:59;;;;;;;12.05;6.45;;;;;;;13.96;58.54;100002.19;1693953;83;21083;-70
2021/04/19 07:14:30;;;;;;;12.47;6.55;;;;;;;13.96;60.26;100002.19;1747084;81;21019;-70
2021/04/19 07:16:58;;;;;;;15.08;6.85;;;;;;;13.98;59.25;100005.59;1742619;80;21043;-69
2021/04/19 07:19:25;;;;;;;16.52;7.22;;;;;;;13.61;59.33;100009.41;1750471;80;21190;-69
2021/04/19 07:21:53;;;;;;;19.23;7.10;;;;;;;13.50;59.21;100007.40;1712047;81;21410;-69
2021/04/19 07:24:20;;;;;;;12.00;5.47;;;;;;;13.37;60.01;100019.48;1713556;81;21614;-70
2021/04/19 07:26:49;;;;;;;13.22;6.15;;;;;;;13.31;60.03;100006.70;1694399;82;21209;-70
2021/04/19 07:29:17;;;;;;;10.45;5.47;;;;;;;13.15;59.82;100012.72;1709548;81;21746;-69
2021/04/19 07:31:53;;;;;;;12.07;6.00;;;;;;;13.18;60.38;100007.31;1701698;83;21869;-70
2021/04/19 07:34:26;;;;;;;15.90;5.95;;;;;;;13.28;60.00;100009.49;1704236;81;22186;-70
2021/04/19 07:37:00;;;;;;;9.60;5.65;;;;;;;13.33;59.68;100012.69;1690325;83;21216;-70
2021/04/19 07:39:31;;;;;;;14.95;6.42;;;;;;;13.25;60.01;100018.77;1692333;82;21211;-70
2021/04/19 07:42:02;;;;;;;9.70;5.92;;;;;;;13.32;60.17;100011.00;1693070;82;21206;-70
2021/04/19 07:44:47;;;;;;;13.98;5.30;;;;;;;13.52;60.31;100005.52;1693889;82;21214;-69
2021/04/19 07:47:37;;;;;;;12.45;6.22;;;;;;;13.70;60.33;100008.08;1697389;82;21270;-68
2021/04/19 07:50:18;;;;;;;11.50;5.37;;;;;;;13.88;60.37;100007.03;1696703;82;21234;-71
2021/04/19 07:53:01;;;;;;;12.35;5.75;;;;;;;14.03;59.52;100000.05;1694897;84;21246;-72
2021/04/19 07:55:37;;;;;;;9.60;5.55;;;;;;;14.20;59.35;99996.45;1695336;82;21265;-71
2021/04/19 07:58:08;;;;;;;13.40;6.40;;;;;;;14.37;58.93;100000.28;1694445;82;21194;-71
2021/04/19 08:00:38;;;;;;;9.45;5.75;;;;;;;14.52;59.58;99992.83;1688251;81;21638;-70
2021/04/19 08:03:19;;;;;;;11.70;5.22;;;;;;;14.67;58.25;99995.48;1741896;81;21138;-70
2021/04/19 08:05:53;;;;;;;9.93;5.05;;;;;;;14.64;57.99;100004.86;1741420;80;21618;-70
2021/04/19 08:08:38;;;;;;;9.33;4.90;;;;;;;14.83;58.86;100003.30;1740449;81;21045;-70
2021/04/19 08:11:10;;;;;;;7.65;4.75;;;;;;;14.91;57.31;100007.16;1736795;81;21395;-70
2021/04/19 08:13:37;;;;;;;8.85;5.15;;;;;;;14.91;57.36;100001.89;1735946;81;21203;-70
2021/04/19 08:16:21;;;;;;;6.70;4.50;;;;;;;15.12;57.79;99993.63;1737948;81;21213;-68
2021/04/19 08:18:48;;;;;;;6.37;3.80;;;;;;;15.38;55.12;99992.86;1751188;79;21021;-68
2021/04/19 08:21:27;;;;;;;8.28;4.70;;;;;;;15.70;57.27;100002.31;1751806;81;21634;-68
2021/04/19 08:23:54;;;;;;;7.53;4.35;;;;;;;15.96;57.18;99990.09;1745348;81;21232;-67
2021/04/19 08:26:21;;;;;;;6.55;3.70;;;;;;;16.09;56.74;99991.82;1747710;81;21400;-66
2021/04/19 08:28:49;;;;;;;15.88;4.25;;;;;;;16.27;56.31;99991.09;1752626;80;28441;-67
2021/04/19 08:31:18;;;;;;;9.70;3.72;;;;;;;16.32;54.37;99986.33;1738071;81;21045;-66
2021/04/19 08:33:46;;;;;;;7.60;3.80;;;;;;;16.33;54.24;100002.53;1712426;81;21186;-66
2021/04/19 08:36:15;;;;;;;5.97;3.55;;;;;;;16.43;54.17;99987.42;1733697;80;21237;-67
2021/04/19 08:38:43;;;;;;;8.15;3.70;;;;;;;16.46;53.46;99996.43;1738934;80;21235;-67
2021/04/19 08:41:14;;;;;;;10.48;4.30;;;;;;;16.49;52.38;99996.22;1739766;80;21626;-67
2021/04/19 08:43:41;;;;;;;9.83;3.70;;;;;;;16.40;50.82;99999.48;1747049;80;21129;-67
2021/04/19 08:46:11;;;;;;;6.03;3.45;;;;;;;16.31;51.44;100003.58;1744042;81;21195;-67
2021/04/19 08:48:38;;;;;;;11.57;4.22;;;;;;;16.36;50.72;100004.60;1746500;79;21167;-67
2021/04/19 08:51:05;;;;;;;8.03;3.62;;;;;;;16.40;50.77;100002.13;1745624;80;21200;-67
2021/04/19 08:53:35;;;;;;;4.58;2.80;;;;;;;16.41;50.06;99993.25;1743988;80;27675;-67
2021/04/19 08:56:03;;;;;;;6.15;3.83;;;;;;;16.46;48.41;100001.70;1741728;80;21214;-67
2021/04/19 08:58:33;;;;;;;7.95;3.60;;;;;;;16.45;49.14;99998.70;1742608;82;21206;-67
2021/04/19 09:01:02;;;;;;;5.72;3.92;;;;;;;16.50;49.14;99992.66;1738747;80;21815;-67
2021/04/19 09:03:29;;;;;;;8.65;4.08;;;;;;;16.61;48.53;99987.50;1734530;81;21196;-67
2021/04/19 09:05:56;;;;;;;8.03;3.35;;;;;;;16.73;47.66;99990.61;1737377;80;21591;-67
2021/04/19 09:08:23;;;;;;;9.00;3.40;;;;;;;16.73;47.39;99984.02;1734714;81;21191;-67
2021/04/19 09:11:01;;;;;;;7.17;3.52;;;;;;;16.89;47.63;99992.23;1751619;80;21227;-68
2021/04/19 09:13:32;;;;;;;7.15;3.30;;;;;;;16.93;46.45;99993.70;1727534;82;21558;-67
2021/04/19 09:16:24;;;;;;;8.08;3.25;;;;;;;16.89;46.36;99993.56;1737074;81;22384;-67
2021/04/19 09:18:57;;;;;;;6.60;3.10;;;;;;;16.91;46.23;99988.99;1735351;80;21269;-67
2021/04/19 09:21:41;;;;;;;8.23;3.30;;;;;;;16.90;44.32;100000.51;1733074;81;21151;-67
2021/04/19 09:24:14;;;;;;;6.47;3.08;;;;;;;16.93;44.96;100005.56;1737711;81;21562;-68
2021/04/19 09:26:51;;;;;;;7.30;3.05;;;;;;;16.91;43.69;100008.78;1734063;81;21251;-67
2021/04/19 09:29:39;;;;;;;9.93;2.80;;;;;;;16.83;43.63;99991.31;1743286;80;21192;-67
2021/04/19 09:32:09;;;;;;;6.08;2.65;;;;;;;16.93;42.78;99997.66;1745791;80;21251;-67
2021/04/19 09:34:58;;;;;;;5.50;3.05;;;;;;;16.90;42.03;100011.89;1734603;81;21253;-68
2021/04/19 09:37:43;;;;;;;6.83;3.10;;;;;;;16.83;41.64;99993.95;1739235;80;21225;-67
2021/04/19 09:40:21;;;;;;;7.55;2.95;;;;;;;16.88;41.82;99990.05;1743055;81;21155;-67
2021/04/19 09:45:52;;;;;;;6.53;2.90;;;;;;;17.02;40.90;99980.34;1828988;77;22689;-67
2021/04/19 09:48:34;;;;;;;6.95;2.70;;;;;;;17.00;40.76;99980.47;1805192;78;21070;-68
2021/04/19 09:54:00;;;;;;;5.47;2.58;;;;;;;17.12;39.41;99979.59;1820877;77;22793;-67
2021/04/19 09:56:42;;;;;;;5.65;2.72;;;;;;;17.00;38.52;99988.38;1799232;78;21092;-68
2021/04/19 09:59:16;;;;;;;9.95;2.77;;;;;;;16.90;37.88;99979.41;1789469;78;21264;-68
2021/04/19 10:01:50;;;;;;;3.90;2.30;;;;;;;16.91;37.71;99974.48;1801053;78;21179;-68
2021/04/19 10:04:18;;;;;;;5.97;2.55;;;;;;;16.99;37.90;99989.31;1795429;78;20990;-68
2021/04/19 10:07:01;;;;;;;6.60;2.80;;;;;;;17.10;37.24;99978.84;1796147;78;21125;-68
2021/04/19 10:09:30;;;;;;;3.42;2.25;;;;;;;17.15;37.44;99974.09;1793890;78;21082;-67
2021/04/19 10:12:07;;;;;;;5.20;2.83;;;;;;;17.10;36.35;99989.40;1799171;78;21687;-68
2021/04/19 10:14:37;;;;;;;;;;;;;;;17.10;37.11;99973.58;1800809;78;21071;-68
2021/04/19 10:17:16;;;;;;;5.22;2.47;;;;;;;17.07;36.18;99968.52;1798730;78;20155;-68
2021/04/19 10:19:44;;;;;;;5.67;2.95;;;;;;;17.11;35.69;99964.73;1797685;78;21559;-67
2021/04/19 10:22:13;;;;;;;8.30;3.10;;;;;;;17.06;35.77;99959.41;1800130;78;21270;-68
2021/04/19 10:24:58;;;;;;;6.90;2.77;;;;;;;17.12;36.03;99978.27;1797093;78;21406;-68
2021/04/19 10:27:31;;;;;;;12.90;3.02;;;;;;;17.15;35.50;99966.19;1797562;78;21069;-67
2021/04/19 10:30:15;;;;;;;7.70;2.60;;;;;;;17.16;35.27;99977.57;1799209;78;21032;-68
2021/04/19 10:32:46;;;;;;;5.42;2.30;;;;;;;17.12;34.75;99975.64;1748420;80;21242;-67
2021/04/19 10:35:34;;;;;;;5.33;2.80;;;;;;;17.10;34.73;99970.94;1732769;80;21246;-67
2021/04/19 10:38:03;;;;;;;8.25;2.52;;;;;;;17.02;34.14;99989.09;1741022;80;21222;-67
2021/04/19 10:40:31;;;;;;;4.03;2.60;;;;;;;16.98;34.01;99970.48;1734363;80;21037;-67
2021/04/19 10:43:10;;;;;;;4.22;2.27;;;;;;;17.03;33.55;99964.42;1736041;80;21037;-67
2021/04/19 10:45:42;;;;;;;7.97;2.52;;;;;;;16.98;33.43;99969.17;1741343;80;21636;-67
2021/04/19 10:49:12;;;;;;;3.92;2.17;;;;;;;16.96;32.75;99989.52;1826667;77;22816;-67
2021/04/19 10:52:00;;;;;;;7.12;2.62;;;;;;;16.88;32.67;99979.50;1790913;78;26347;-67
2021/04/19 10:54:30;;;;;;;6.47;2.70;;;;;;;16.80;32.49;99963.84;1765238;79;21050;-67
2021/04/19 10:56:59;;;;;;;7.72;2.98;;;;;;;16.87;32.98;99969.08;1767454;80;21019;-67
2021/04/19 10:59:27;;;;;;;4.75;2.70;;;;;;;16.98;32.67;99959.94;1768412;79;21102;-67
2021/04/19 11:02:04;;;;;;;4.45;2.62;;;;;;;17.00;32.23;99959.36;1769291;80;21061;-67
2021/04/19 11:04:33;;;;;;;6.58;3.12;;;;;;;16.94;32.32;99966.36;1763887;80;21121;-69
2021/04/19 11:07:28;;;;;;;4.42;2.25;;;;;;;16.96;32.54;99957.88;1716804;81;21658;-68
2021/04/19 11:10:25;;;;;;;4.47;2.60;;;;;;;16.95;31.64;99974.66;1708083;82;21202;-68
2021/04/19 11:13:06;;;;;;;7.00;2.80;;;;;;;16.99;32.40;99965.57;1710045;83;28391;-68
2021/04/19 11:15:42;;;;;;;3.05;2.20;;;;;;;17.03;32.23;99974.97;1709964;82;21025;-67
2021/04/19 11:18:30;;;;;;;7.65;2.22;;;;;;;16.93;31.35;99984.47;1701590;83;21216;-68
2021/04/19 11:20:57;;;;;;;3.72;2.15;;;;;;;16.84;31.73;99958.73;1728889;82;21542;-68
2021/04/19 11:23:31;;;;;;;9.73;2.55;;;;;;;16.81;31.22;99964.23;1731306;82;21236;-67
2021/04/19 11:26:01;;;;;;;6.42;3.02;;;;;;;16.77;31.57;99960.45;1707725;82;21228;-67
2021/04/19 11:28:35;;;;;;;7.47;2.60;;;;;;;16.81;31.29;99972.14;1728664;82;21765;-70
2021/04/19 11:31:16;;;;;;;4.50;2.17;;;;;;;16.67;30.56;99952.80;1729748;81;21112;-68
2021/04/19 11:33:44;;;;;;;6.10;2.12;;;;;;;16.56;30.89;99963.23;1708715;83;21280;-68
2021/04/19 11:36:11;;;;;;;7.72;2.90;;;;;;;16.64;30.74;99957.45;1732777;82;21281;-69
2021/04/19 11:38:41;;;;;;;8.88;3.30;;;;;;;16.70;30.75;99955.23;1734061;82;21738;-70
2021/04/19 11:41:13;;;;;;;5.80;2.75;;;;;;;16.67;30.93;99971.26;1728996;82;21094;-69
2021/04/19 11:43:51;;;;;;;4.53;1.95;;;;;;;16.72;30.66;99971.79;1736096;81;21147;-69
2021/04/19 11:46:20;;;;;;;3.47;2.35;;;;;;;16.76;30.91;99972.41;1706767;82;21108;-68
2021/04/19 11:48:50;;;;;;;6.80;2.98;;;;;;;16.75;30.45;99980.80;1730474;82;21200;-69
2021/04/19 11:51:19;;;;;;;4.83;2.40;;;;;;;16.75;31.19;99968.94;1729385;81;21564;-68
2021/04/19 11:53:49;;;;;;;7.25;3.25;;;;;;;16.80;30.77;99970.44;1706537;83;21231;-68
2021/04/19 11:56:18;;;;;;;4.22;2.10;;;;;;;16.59;30.45;99974.89;1736228;81;21082;-68